Dades meteomassalio
Diari Summary for Gener 18, 2018 Units:  English    Metric   Both
« Previous Day
Next Day »
Diari Semanal Mensual Anual Personalitzat
  Maxima: Minima: Mijana:
Temperatura: TemperatureC °F 0.0 °F 6.1 °F
Rosada: DewpointC °F -3.2 °F 0.5 °F
Humitat: Humidity % 40 % 69 %
Velocitat del vent: WindSpeedKMH mph 0.0 mph 4.5 mph
Racha vent: WindSpeedGustKMH mph - -
Vent:- - WSW
Pressio: PressurehPa in 1023.6 in -
Pluja: 0.0 in    
Historical Graphs
 
 
Tabular Data for Gener 18, 2018
Time Temperature Dew Point Pressure Wind Wind Speed Wind Gust Humidity Rainfall Rate (Hourly) solar Conditions
TemperatureC °F DewpointC °F PressurehPa in Calm     Humidity % HourlyPrecipMM in SolarRadiationWatts/m^2 W/m2 Conditions
00:01 7.8 °F 3.2 °F 1030.0 in West 11.1 mph 11.1 mph 73 % 0.0 in 0.0 W/m2 CLR
00:06 7.2 °F 2.7 °F 1030.0 in WSW 14.8 mph 14.8 mph 73 % 0.0 in 0.0 W/m2 CLR
00:11 7.8 °F 3.4 °F 1030.0 in Calm     74 % 0.0 in 0.0 W/m2 CLR
00:16 7.2 °F 2.9 °F 1030.0 in WNW 13.0 mph 13.0 mph 74 % 0.0 in 0.0 W/m2 CLR
00:21 6.7 °F 2.3 °F 1030.0 in NW 16.7 mph 16.7 mph 74 % 0.0 in 0.0 W/m2 CLR
00:26 6.7 °F 2.3 °F 1030.4 in WSW 11.3 mph 11.3 mph 74 % 0.0 in 0.0 W/m2 CLR
00:31 6.7 °F 2.3 °F 1030.4 in Calm     74 % 0.0 in 0.0 W/m2 CLR
00:36 6.7 °F 2.3 °F 1030.0 in WNW 9.7 mph 9.7 mph 74 % 0.0 in 0.0 W/m2 CLR
00:41 6.7 °F 2.6 °F 1030.4 in WSW 16.7 mph 16.7 mph 75 % 0.0 in 0.0 W/m2 CLR
00:46 7.2 °F 3.1 °F 1030.4 in WSW 14.8 mph 14.8 mph 75 % 0.0 in 0.0 W/m2 CLR
00:51 6.7 °F 2.7 °F 1030.0 in WNW 14.8 mph 14.8 mph 76 % 0.0 in 0.0 W/m2 CLR
00:56 6.7 °F 2.6 °F 1030.0 in West 12.9 mph 12.9 mph 75 % 0.0 in 0.0 W/m2 CLR
01:01 6.7 °F 2.6 °F 1030.4 in SW 11.1 mph 11.1 mph 75 % 0.0 in 0.0 W/m2 CLR
01:06 6.7 °F 2.7 °F 1030.4 in West 1.9 mph   76 % 0.0 in 0.0 W/m2 CLR
01:11 7.2 °F 3.3 °F 1030.0 in WNW 16.7 mph 16.7 mph 76 % 0.0 in 0.0 W/m2 CLR
01:16 6.7 °F 2.7 °F 1030.0 in WNW 13.0 mph 13.0 mph 76 % 0.0 in 0.0 W/m2 CLR
01:21 6.7 °F 2.7 °F 1030.0 in West 16.7 mph 16.7 mph 76 % 0.0 in 0.0 W/m2 CLR
01:26 6.7 °F 2.7 °F 1030.0 in West 9.7 mph 9.7 mph 76 % 0.0 in 0.0 W/m2 CLR
01:31 6.7 °F 2.7 °F 1030.0 in West 9.3 mph 9.3 mph 76 % 0.0 in 0.0 W/m2 CLR
01:36 6.7 °F 2.9 °F 1030.0 in West 18.5 mph 18.5 mph 77 % 0.0 in 0.0 W/m2 CLR
01:41 6.1 °F 2.4 °F 1030.0 in NW 16.7 mph 16.7 mph 77 % 0.0 in 0.0 W/m2 CLR
01:46 5.6 °F 1.8 °F 1030.0 in WNW 19.3 mph 19.3 mph 77 % 0.0 in 0.0 W/m2 CLR
01:47 5.6 °F 1.7 °F 1030.0 in West 16.7 mph 16.7 mph 76 % 0.0 in 0.0 W/m2 CLR
01:52 6.1 °F 2.2 °F 1030.0 in West 14.8 mph 14.8 mph 76 % 0.0 in 0.0 W/m2 CLR
01:57 6.1 °F 2.4 °F 1030.0 in WNW 11.3 mph 11.3 mph 77 % 0.0 in 0.0 W/m2 CLR
02:02 5.6 °F 1.8 °F 1030.0 in WNW 14.8 mph 14.8 mph 77 % 0.0 in 0.0 W/m2 CLR
02:07 5.0 °F 1.3 °F 1030.0 in West 14.8 mph 14.8 mph 77 % 0.0 in 0.0 W/m2 CLR
02:12 5.0 °F 1.3 °F 1029.7 in WNW 14.8 mph 14.8 mph 77 % 0.0 in 0.0 W/m2 CLR
02:17 5.0 °F 1.5 °F 1029.7 in West 16.7 mph 16.7 mph 78 % 0.0 in 0.0 W/m2 CLR
02:22 5.0 °F 1.5 °F 1029.7 in WSW 16.7 mph 16.7 mph 78 % 0.0 in 0.0 W/m2 CLR
02:27 5.6 °F 1.8 °F 1029.7 in Calm     77 % 0.0 in 0.0 W/m2 CLR
02:32 5.0 °F 1.5 °F 1029.7 in WNW 16.1 mph 16.1 mph 78 % 0.0 in 0.0 W/m2 CLR
02:37 5.0 °F 1.5 °F 1029.7 in WNW 14.8 mph 14.8 mph 78 % 0.0 in 0.0 W/m2 CLR
02:42 5.0 °F 1.5 °F 1029.7 in West 18.5 mph 18.5 mph 78 % 0.0 in 0.0 W/m2 CLR
02:47 5.0 °F 1.3 °F 1029.7 in West 11.3 mph 11.3 mph 77 % 0.0 in 0.0 W/m2 CLR
02:52 4.4 °F 0.8 °F 1029.7 in West 14.5 mph 14.5 mph 77 % 0.0 in 0.0 W/m2 CLR
02:57 3.9 °F 0.6 °F 1029.7 in West 14.8 mph 14.8 mph 79 % 0.0 in 0.0 W/m2 CLR
03:02 4.4 °F 1.1 °F 1029.7 in West 18.5 mph 18.5 mph 79 % 0.0 in 0.0 W/m2 CLR
03:07 4.4 °F 0.9 °F 1029.7 in WNW 13.0 mph 13.0 mph 78 % 0.0 in 0.0 W/m2 CLR
03:12 4.4 °F 0.9 °F 1029.3 in West 16.1 mph 16.1 mph 78 % 0.0 in 0.0 W/m2 CLR
03:17 4.4 °F 0.9 °F 1029.3 in WNW 14.8 mph 14.8 mph 78 % 0.0 in 0.0 W/m2 CLR
03:22 3.9 °F 0.2 °F 1029.3 in NW 18.5 mph 18.5 mph 77 % 0.0 in 0.0 W/m2 CLR
03:27 4.4 °F 0.8 °F 1029.3 in West 14.8 mph 14.8 mph 77 % 0.0 in 0.0 W/m2 CLR
03:32 5.0 °F 1.5 °F 1029.3 in WNW 16.7 mph 16.7 mph 78 % 0.0 in 0.0 W/m2 CLR
03:37 4.4 °F 1.1 °F 1029.3 in WNW 18.5 mph 18.5 mph 79 % 0.0 in 0.0 W/m2 CLR
03:42 4.4 °F 0.9 °F 1029.0 in WNW 20.9 mph 20.9 mph 78 % 0.0 in 0.0 W/m2 CLR
03:47 5.0 °F 1.3 °F 1029.0 in West 22.2 mph 22.2 mph 77 % 0.0 in 0.0 W/m2 CLR
03:52 5.6 °F 1.7 °F 1029.3 in WSW 7.4 mph 7.4 mph 76 % 0.0 in 0.0 W/m2 CLR
03:57 5.6 °F 1.8 °F 1029.0 in WNW 16.1 mph 16.1 mph 77 % 0.0 in 0.0 W/m2 CLR
04:02 5.0 °F 1.5 °F 1028.7 in WNW 19.3 mph 19.3 mph 78 % 0.0 in 0.0 W/m2 CLR
04:07 5.0 °F 1.5 °F 1029.0 in WNW 13.0 mph 13.0 mph 78 % 0.0 in 0.0 W/m2 CLR
04:12 5.0 °F 1.5 °F 1028.7 in West 16.7 mph 16.7 mph 78 % 0.0 in 0.0 W/m2 CLR
04:17 5.0 °F 1.3 °F 1028.7 in WSW 16.7 mph 16.7 mph 77 % 0.0 in 0.0 W/m2 CLR
04:22 5.6 °F 1.8 °F 1028.7 in West 9.3 mph 9.3 mph 77 % 0.0 in 0.0 W/m2 CLR
04:27 5.0 °F 1.5 °F 1028.7 in WNW 14.8 mph 14.8 mph 78 % 0.0 in 0.0 W/m2 CLR
04:32 4.4 °F 0.9 °F 1028.7 in WNW 16.7 mph 16.7 mph 78 % 0.0 in 0.0 W/m2 CLR
04:37 3.9 °F 0.4 °F 1028.7 in West 11.1 mph 11.1 mph 78 % 0.0 in 0.0 W/m2 CLR
04:42 3.3 °F -0.2 °F 1028.7 in WNW 14.8 mph 14.8 mph 78 % 0.0 in 0.0 W/m2 CLR
04:47 2.8 °F -0.7 °F 1028.7 in WNW 13.0 mph 13.0 mph 78 % 0.0 in 0.0 W/m2 CLR
04:52 2.2 °F -1.4 °F 1028.7 in WNW 7.4 mph 7.4 mph 77 % 0.0 in 0.0 W/m2 CLR
04:57 2.2 °F -1.4 °F 1028.3 in WNW 16.7 mph 16.7 mph 77 % 0.0 in 0.0 W/m2 CLR
05:02 1.7 °F -1.9 °F 1028.3 in WNW 11.1 mph 11.1 mph 77 % 0.0 in 0.0 W/m2 CLR
05:07 1.7 °F -2.1 °F 1028.7 in Calm     76 % 0.0 in 0.0 W/m2 CLR
05:12 1.7 °F -2.1 °F 1028.3 in Calm     76 % 0.0 in 0.0 W/m2 CLR
05:17 1.7 °F -1.4 °F 1028.3 in Calm     80 % 0.0 in 0.0 W/m2 CLR
05:22 1.7 °F -1.8 °F 1028.7 in Calm     78 % 0.0 in 0.0 W/m2 CLR
05:27 1.1 °F -1.9 °F 1028.3 in Calm     80 % 0.0 in 0.0 W/m2 CLR
05:32 1.7 °F -1.2 °F 1028.3 in WNW 13.0 mph 13.0 mph 81 % 0.0 in 0.0 W/m2 CLR
05:37 1.7 °F -1.6 °F 1028.3 in WNW 18.5 mph 18.5 mph 79 % 0.0 in 0.0 W/m2 CLR
05:42 1.1 °F -2.5 °F 1028.3 in WNW 16.7 mph 16.7 mph 77 % 0.0 in 0.0 W/m2 CLR
05:47 1.1 °F -2.5 °F 1028.3 in West 14.8 mph 14.8 mph 77 % 0.0 in 0.0 W/m2 CLR
05:52 1.1 °F -2.5 °F 1028.3 in WNW 14.8 mph 14.8 mph 77 % 0.0 in 0.0 W/m2 CLR
05:57 1.1 °F -2.5 °F 1028.3 in WNW 18.5 mph 18.5 mph 77 % 0.0 in 0.0 W/m2 CLR
06:02 1.1 °F -2.5 °F 1028.3 in West 13.0 mph 13.0 mph 77 % 0.0 in 0.0 W/m2 CLR
06:07 1.1 °F -2.5 °F 1028.0 in West 5.6 mph 5.6 mph 77 % 0.0 in 0.0 W/m2 CLR
06:12 1.7 °F -1.9 °F 1028.0 in Calm     77 % 0.0 in 0.0 W/m2 CLR
06:17 2.2 °F -1.4 °F 1028.3 in Calm     77 % 0.0 in 0.0 W/m2 CLR
06:22 2.2 °F -1.2 °F 1028.3 in Calm   0.2 mph 78 % 0.0 in 0.0 W/m2 CLR
06:27 2.2 °F -0.7 °F 1028.0 in WNW 16.7 mph 16.7 mph 81 % 0.0 in 0.0 W/m2 CLR
06:32 2.2 °F -1.1 °F 1028.0 in West 16.7 mph 16.7 mph 79 % 0.0 in 0.0 W/m2 CLR
06:37 2.2 °F -1.4 °F 1028.3 in Calm     77 % 0.0 in 0.0 W/m2 CLR
06:42 2.2 °F -1.4 °F 1028.3 in West 5.6 mph 5.6 mph 77 % 0.0 in 0.0 W/m2 CLR
06:47 2.2 °F -0.9 °F 1028.3 in WNW 9.3 mph 9.3 mph 80 % 0.0 in 0.0 W/m2 CLR
06:52 1.7 °F -1.8 °F 1028.3 in WNW 13.0 mph 13.0 mph 78 % 0.0 in 0.0 W/m2 CLR
06:57 1.7 °F -2.1 °F 1028.3 in WNW 11.1 mph 11.1 mph 76 % 0.0 in 0.0 W/m2 CLR
07:02 1.1 °F -2.8 °F 1028.3 in West 9.3 mph 9.3 mph 75 % 0.0 in 0.0 W/m2 CLR
07:07 1.1 °F -3.2 °F 1028.3 in Calm     73 % 0.0 in 0.0 W/m2 CLR
07:12 1.7 °F -2.1 °F 1028.3 in Calm     76 % 0.0 in 0.0 W/m2 CLR
07:17 2.2 °F -1.2 °F 1028.3 in Calm     78 % 0.0 in 0.0 W/m2 CLR
07:22 2.2 °F -0.9 °F 1028.3 in WSW 5.6 mph 5.6 mph 80 % 0.0 in 0.0 W/m2 CLR
07:27 1.7 °F -1.2 °F 1028.3 in WSW 5.6 mph 5.6 mph 81 % 0.0 in 0.0 W/m2 CLR
07:32 1.7 °F -1.1 °F 1028.3 in Calm     82 % 0.0 in 0.0 W/m2 CLR
07:37 1.1 °F -1.4 °F 1028.3 in Calm     83 % 0.0 in 0.0 W/m2 CLR
07:42 0.6 °F -2.0 °F 1028.3 in Calm     83 % 0.0 in 0.0 W/m2 CLR
07:47 0.6 °F -1.8 °F 1028.3 in Calm     84 % 0.0 in 0.0 W/m2 CLR
07:52 0.0 °F -2.4 °F 1028.3 in Calm     84 % 0.0 in 0.0 W/m2 CLR
07:57 0.0 °F -2.4 °F 1028.3 in Calm     84 % 0.0 in 0.0 W/m2 CLR
08:02 0.0 °F -2.2 °F 1028.3 in Calm     85 % 0.0 in 0.0 W/m2 CLR
08:07 0.0 °F -2.2 °F 1028.3 in Calm     85 % 0.0 in 0.0 W/m2 CLR
08:12 0.0 °F -2.2 °F 1028.3 in Calm     85 % 0.0 in 0.0 W/m2 OVC
08:17 0.0 °F -2.2 °F 1028.7 in Calm     85 % 0.0 in 0.0 W/m2 OVC
08:22 0.0 °F -2.2 °F 1028.7 in Calm     85 % 0.0 in 5.0 W/m2 OVC
08:27 0.6 °F -1.5 °F 1028.7 in Calm     86 % 0.0 in 9.0 W/m2 BKN
08:33 0.6 °F -1.5 °F 1028.7 in Calm     86 % 0.0 in 11.0 W/m2 BKN
08:38 0.6 °F -1.3 °F 1028.7 in Calm     87 % 0.0 in 14.0 W/m2 BKN
08:43 0.0 °F -1.9 °F 1028.7 in Calm     87 % 0.0 in 16.0 W/m2 BKN
08:48 0.6 °F -1.5 °F 1028.7 in Calm     86 % 0.0 in 19.0 W/m2 BKN
08:53 0.6 °F -1.5 °F 1028.7 in Calm     86 % 0.0 in 23.0 W/m2 BKN
08:58 1.1 °F -0.9 °F 1028.7 in Calm     86 % 0.0 in 28.0 W/m2 BKN
09:03 1.1 °F -0.9 °F 1028.7 in Calm     86 % 0.0 in 42.0 W/m2 BKN
09:08 0.6 °F -1.5 °F 1028.7 in Calm     86 % 0.0 in 53.0 W/m2 SCT
09:13 1.1 °F -1.1 °F 1028.7 in Calm     85 % 0.0 in 62.0 W/m2 SCT
09:18 1.1 °F -1.1 °F 1028.7 in Calm     85 % 0.0 in 74.0 W/m2 FEW
09:23 1.1 °F -1.1 °F 1028.7 in Calm     85 % 0.0 in 86.0 W/m2 FEW
09:28 1.1 °F -1.3 °F 1028.7 in Calm     84 % 0.0 in 100.0 W/m2 FEW
09:33 1.1 °F -1.3 °F 1028.7 in Calm     84 % 0.0 in 114.0 W/m2 CLR
09:38 1.1 °F -1.4 °F 1028.7 in Calm     83 % 0.0 in 128.0 W/m2 CLR
09:43 1.7 °F -1.1 °F 1028.7 in Calm     82 % 0.0 in 144.0 W/m2 CLR
09:48 1.7 °F -1.4 °F 1029.0 in Calm     80 % 0.0 in 158.0 W/m2 CLR
09:53 2.2 °F -0.9 °F 1029.0 in Calm     80 % 0.0 in 176.0 W/m2 CLR
09:58 2.8 °F -0.5 °F 1029.0 in Calm     79 % 0.0 in 179.0 W/m2 CLR
10:03 2.8 °F -0.8 °F 1029.0 in Calm     77 % 0.0 in 142.0 W/m2 CLR
10:08 3.3 °F -0.2 °F 1029.0 in Calm     78 % 0.0 in 172.0 W/m2 CLR
10:13 3.3 °F -0.5 °F 1029.0 in Calm     76 % 0.0 in 181.0 W/m2 CLR
10:18 3.9 °F 0.1 °F 1029.0 in Calm     76 % 0.0 in 250.0 W/m2 CLR
10:23 3.9 °F -0.2 °F 1029.0 in Calm     75 % 0.0 in 262.0 W/m2 CLR
10:28 5.0 °F 0.7 °F 1029.0 in Calm     74 % 0.0 in 272.0 W/m2 CLR
10:33 5.0 °F 0.7 °F 1029.0 in Calm     74 % 0.0 in 287.0 W/m2 CLR
10:38 6.1 °F 1.4 °F 1029.0 in Calm     72 % 0.0 in 294.0 W/m2 CLR
10:43 6.7 °F 2.0 °F 1029.0 in Calm     72 % 0.0 in 271.0 W/m2 CLR
10:48 7.2 °F 1.9 °F 1029.0 in Calm     69 % 0.0 in 311.0 W/m2 CLR
10:53 7.2 °F 1.9 °F 1029.0 in Calm     69 % 0.0 in 330.0 W/m2 CLR
10:58 7.8 °F 2.7 °F 1029.0 in Calm     70 % 0.0 in 339.0 W/m2 CLR
11:03 7.8 °F 2.2 °F 1029.0 in Calm     68 % 0.0 in 350.0 W/m2 CLR
11:08 8.3 °F 2.8 °F 1029.0 in Calm     68 % 0.0 in 359.0 W/m2 CLR
11:13 8.9 °F 2.9 °F 1029.0 in Calm     66 % 0.0 in 367.0 W/m2 CLR
11:18 8.9 °F 2.7 °F 1029.0 in Calm     65 % 0.0 in 378.0 W/m2 CLR
11:23 8.9 °F 2.4 °F 1029.0 in Calm     64 % 0.0 in 385.0 W/m2 CLR
11:28 9.4 °F 2.9 °F 1029.0 in Calm     64 % 0.0 in 392.0 W/m2 CLR
11:33 9.4 °F 2.7 °F 1029.0 in Calm     63 % 0.0 in 399.0 W/m2 CLR
11:38 9.4 °F 2.3 °F 1029.0 in Calm     61 % 0.0 in 408.0 W/m2 CLR
11:43 10.0 °F 2.6 °F 1029.0 in Calm     60 % 0.0 in 417.0 W/m2 CLR
11:48 10.0 °F 2.3 °F 1028.7 in Calm     59 % 0.0 in 422.0 W/m2 CLR
11:53 10.6 °F 1.9 °F 1028.3 in North 5.6 mph 5.6 mph 55 % 0.0 in 427.0 W/m2 CLR
11:58 10.6 °F 1.9 °F 1028.7 in NNW 5.6 mph 5.6 mph 55 % 0.0 in 436.0 W/m2 CLR
12:03 11.1 °F 2.4 °F 1028.7 in NNW 5.6 mph 5.6 mph 55 % 0.0 in 441.0 W/m2 CLR
12:08 11.1 °F 2.4 °F 1028.3 in NNW 1.6 mph 1.6 mph 55 % 0.0 in 446.0 W/m2 CLR
12:13 11.7 °F 2.7 °F 1028.3 in North 3.7 mph 3.7 mph 54 % 0.0 in 452.0 W/m2 CLR
12:18 11.7 °F 2.7 °F 1028.0 in NNW 3.7 mph 3.7 mph 54 % 0.0 in 457.0 W/m2 CLR
12:23 11.7 °F 2.4 °F 1028.0 in NW 3.7 mph 3.7 mph 53 % 0.0 in 461.0 W/m2 CLR
12:28 12.2 °F 2.9 °F 1028.0 in North 1.9 mph 1.9 mph 53 % 0.0 in 464.0 W/m2 CLR
12:33 12.2 °F 2.9 °F 1027.7 in Calm     53 % 0.0 in 466.0 W/m2 CLR
12:38 12.2 °F 2.7 °F 1027.7 in NNW 5.6 mph 5.6 mph 52 % 0.0 in 471.0 W/m2 CLR
12:43 12.2 °F 2.7 °F 1027.7 in Calm     52 % 0.0 in 473.0 W/m2 CLR
12:48 12.2 °F 2.7 °F 1027.3 in North 5.6 mph 5.6 mph 52 % 0.0 in 476.0 W/m2 CLR
12:53 12.2 °F 2.4 °F 1027.3 in NNE 5.6 mph 5.6 mph 51 % 0.0 in 482.0 W/m2 CLR
12:58 12.8 °F 2.6 °F 1027.3 in Calm     50 % 0.0 in 464.0 W/m2 CLR
13:03 12.8 °F 2.6 °F 1027.0 in North 5.6 mph 5.6 mph 50 % 0.0 in 482.0 W/m2 CLR
13:08 13.3 °F 3.1 °F 1027.0 in North 5.6 mph 5.6 mph 50 % 0.0 in 482.0 W/m2 CLR
13:13 13.3 °F 2.8 °F 1027.0 in NNW 5.6 mph 5.6 mph 49 % 0.0 in 482.0 W/m2 CLR
13:18 13.9 °F 3.1 °F 1026.6 in NNW 9.3 mph 9.3 mph 48 % 0.0 in 480.0 W/m2 CLR
13:23 13.9 °F 3.3 °F 1026.6 in NNW 5.6 mph 5.6 mph 49 % 0.0 in 482.0 W/m2 CLR
13:28 13.9 °F 2.8 °F 1026.6 in North 5.6 mph 5.6 mph 47 % 0.0 in 480.0 W/m2 CLR
13:33 14.4 °F 3.6 °F 1026.6 in North 3.7 mph 3.7 mph 48 % 0.0 in 478.0 W/m2 CLR
13:38 13.9 °F 3.1 °F 1026.3 in NE 7.4 mph 7.4 mph 48 % 0.0 in 476.0 W/m2 CLR
13:43 14.4 °F 3.6 °F 1026.3 in ENE 5.6 mph 5.6 mph 48 % 0.0 in 473.0 W/m2 CLR
13:48 13.9 °F 3.3 °F 1026.3 in NNE 9.3 mph 9.3 mph 49 % 0.0 in 471.0 W/m2 CLR
13:53 13.9 °F 3.3 °F 1026.0 in NE 5.6 mph 5.6 mph 49 % 0.0 in 468.0 W/m2 CLR
13:58 13.9 °F 3.6 °F 1026.0 in NE 5.6 mph 5.6 mph 50 % 0.0 in 464.0 W/m2 CLR
14:03 13.9 °F 3.6 °F 1026.0 in North 1.9 mph 1.9 mph 50 % 0.0 in 461.0 W/m2 CLR
14:08 13.9 °F 3.6 °F 1025.6 in NNE 5.6 mph 5.6 mph 50 % 0.0 in 457.0 W/m2 CLR
14:13 13.9 °F 3.9 °F 1025.6 in NNE 1.9 mph 1.9 mph 51 % 0.0 in 461.0 W/m2 CLR
14:18 13.9 °F 3.9 °F 1025.6 in NE 1.9 mph 1.9 mph 51 % 0.0 in 448.0 W/m2 CLR
14:23 14.4 °F 4.2 °F 1025.6 in NE 3.7 mph 3.7 mph 50 % 0.0 in 432.0 W/m2 CLR
14:29 13.9 °F 3.6 °F 1025.6 in North 9.3 mph 9.3 mph 50 % 0.0 in 439.0 W/m2 CLR
14:34 13.9 °F 3.6 °F 1025.3 in North 5.6 mph 5.6 mph 50 % 0.0 in 422.0 W/m2 CLR
14:39 13.9 °F 3.1 °F 1025.3 in Calm     48 % 0.0 in 432.0 W/m2 CLR
14:44 13.9 °F 3.3 °F 1025.3 in Calm     49 % 0.0 in 425.0 W/m2 CLR
14:49 13.9 °F 2.8 °F 1025.3 in NNE 5.6 mph 5.6 mph 47 % 0.0 in 392.0 W/m2 CLR
14:54 13.9 °F 2.8 °F 1025.3 in NNE 5.6 mph 5.6 mph 47 % 0.0 in 371.0 W/m2 CLR
14:59 13.9 °F 2.8 °F 1024.9 in ENE 3.7 mph 3.7 mph 47 % 0.0 in 399.0 W/m2 CLR
15:04 14.4 °F 3.6 °F 1024.9 in Calm   0.8 mph 48 % 0.0 in 388.0 W/m2 CLR
15:09 14.4 °F 3.3 °F 1024.9 in Calm     47 % 0.0 in 380.0 W/m2 CLR
15:14 14.4 °F 3.3 °F 1024.6 in Calm     47 % 0.0 in 371.0 W/m2 CLR
15:19 14.4 °F 2.9 °F 1024.6 in Calm   0.3 mph 46 % 0.0 in 362.0 W/m2 CLR
15:24 14.4 °F 2.9 °F 1024.6 in Calm     46 % 0.0 in 352.0 W/m2 CLR
15:29 15.0 °F 3.2 °F 1024.6 in Calm     45 % 0.0 in 345.0 W/m2 CLR
15:34 15.0 °F 2.5 °F 1024.6 in NNW 6.4 mph 6.4 mph 43 % 0.0 in 330.0 W/m2 CLR
15:39 15.0 °F 2.2 °F 1024.6 in NNW 5.6 mph 5.6 mph 42 % 0.0 in 320.0 W/m2 CLR
15:44 15.0 °F 1.8 °F 1024.6 in NW 5.6 mph 5.6 mph 41 % 0.0 in 309.0 W/m2 CLR
15:49 15.0 °F 1.5 °F 1024.3 in NNW 5.6 mph 5.6 mph 40 % 0.0 in 299.0 W/m2 CLR
15:54 15.0 °F 2.2 °F 1024.3 in NNW 7.4 mph 7.4 mph 42 % 0.0 in 288.0 W/m2 CLR
15:59 15.0 °F 2.2 °F 1024.3 in NNW 5.6 mph 5.6 mph 42 % 0.0 in 274.0 W/m2 CLR
16:04 15.0 °F 1.5 °F 1024.6 in NNW 5.6 mph 5.6 mph 40 % 0.0 in 239.0 W/m2 CLR
16:09 15.0 °F 2.5 °F 1024.3 in NNW 1.9 mph 1.9 mph 43 % 0.0 in 239.0 W/m2 CLR
16:14 15.0 °F 2.5 °F 1024.3 in NNW 5.6 mph 5.6 mph 43 % 0.0 in 200.0 W/m2 CLR
16:19 14.4 °F 1.7 °F 1024.3 in NNW 3.7 mph 3.7 mph 42 % 0.0 in 216.0 W/m2 CLR
16:24 14.4 °F 1.7 °F 1024.3 in NW 5.6 mph 5.6 mph 42 % 0.0 in 202.0 W/m2 CLR
16:29 13.9 °F 1.2 °F 1024.3 in NNW 1.9 mph   42 % 0.0 in 186.0 W/m2 CLR
16:34 13.3 °F 1.3 °F 1024.3 in NE 3.7 mph 3.7 mph 44 % 0.0 in 171.0 W/m2 CLR
16:39 13.3 °F 1.6 °F 1024.3 in Calm     45 % 0.0 in 153.0 W/m2 CLR
16:44 12.8 °F 1.4 °F 1024.3 in Calm     46 % 0.0 in 139.0 W/m2 CLR
16:49 12.8 °F 1.4 °F 1024.3 in Calm     46 % 0.0 in 125.0 W/m2 CLR
16:54 12.2 °F 0.9 °F 1024.3 in Calm     46 % 0.0 in 111.0 W/m2 CLR
16:59 12.2 °F 1.2 °F 1024.3 in Calm     47 % 0.0 in 98.0 W/m2 CLR
17:04 11.7 °F 0.7 °F 1024.3 in Calm     47 % 0.0 in 83.0 W/m2 FEW
17:09 11.7 °F 1.0 °F 1024.3 in Calm     48 % 0.0 in 63.0 W/m2 SCT
17:10 11.7 °F 1.3 °F 1024.3 in Calm     49 % 0.0 in 54.0 W/m2 SCT
17:15 11.1 °F 0.8 °F 1024.3 in Calm     49 % 0.0 in 53.0 W/m2 SCT
17:20 10.6 °F 0.3 °F 1024.3 in Calm     49 % 0.0 in 42.0 W/m2 SCT
17:25 10.6 °F 0.6 °F 1024.3 in Calm     50 % 0.0 in 32.0 W/m2 BKN
17:30 10.0 °F 0.1 °F 1024.3 in Calm     50 % 0.0 in 23.0 W/m2 BKN
17:35 9.4 °F -0.7 °F 1024.3 in Calm     49 % 0.0 in 16.0 W/m2 BKN
17:40 8.9 °F -1.0 °F 1024.3 in Calm     50 % 0.0 in 12.0 W/m2 BKN
17:45 8.9 °F -1.0 °F 1024.3 in Calm     50 % 0.0 in 11.0 W/m2 BKN
17:50 8.3 °F -1.2 °F 1024.3 in Calm     51 % 0.0 in 7.0 W/m2 BKN
17:55 7.8 °F -1.5 °F 1024.3 in Calm     52 % 0.0 in 5.0 W/m2 OVC
18:00 7.8 °F -1.2 °F 1024.3 in Calm     53 % 0.0 in 0.0 W/m2 CLR
18:05 7.8 °F -0.7 °F 1024.3 in Calm     55 % 0.0 in 0.0 W/m2 CLR
18:10 7.2 °F -1.0 °F 1024.3 in Calm     56 % 0.0 in 0.0 W/m2 CLR
18:15 7.8 °F 0.0 °F 1023.9 in Calm     58 % 0.0 in 0.0 W/m2 CLR
18:20 7.8 °F 0.5 °F 1023.9 in Calm     60 % 0.0 in 0.0 W/m2 CLR
18:25 7.8 °F 0.7 °F 1023.9 in Calm     61 % 0.0 in 0.0 W/m2 CLR
18:30 7.2 °F 0.7 °F 1023.9 in Calm     63 % 0.0 in 0.0 W/m2 CLR
18:35 6.7 °F 0.3 °F 1023.9 in Calm     64 % 0.0 in 0.0 W/m2 CLR
18:40 6.7 °F 0.3 °F 1023.9 in Calm     64 % 0.0 in 0.0 W/m2 CLR
18:45 6.1 °F 0.2 °F 1024.3 in Calm     66 % 0.0 in 0.0 W/m2 CLR
18:50 5.6 °F 0.1 °F 1024.3 in Calm     68 % 0.0 in 0.0 W/m2 CLR
18:55 5.6 °F 0.3 °F 1024.3 in Calm     69 % 0.0 in 0.0 W/m2 CLR
19:00 5.6 °F 0.5 °F 1024.3 in Calm     70 % 0.0 in 0.0 W/m2 CLR
19:05 5.6 °F 0.7 °F 1024.3 in Calm     71 % 0.0 in 0.0 W/m2 CLR
19:10 5.6 °F 0.7 °F 1024.3 in Calm     71 % 0.0 in 0.0 W/m2 CLR
19:15 5.6 °F 0.9 °F 1024.3 in Calm     72 % 0.0 in 0.0 W/m2 CLR
19:20 5.6 °F 0.9 °F 1024.3 in Calm     72 % 0.0 in 0.0 W/m2 CLR
19:25 5.0 °F 0.6 °F 1024.3 in Calm     73 % 0.0 in 0.0 W/m2 CLR
19:30 4.4 °F 0.0 °F 1024.3 in Calm     73 % 0.0 in 0.0 W/m2 CLR
19:35 4.4 °F 0.2 °F 1024.3 in Calm     74 % 0.0 in 0.0 W/m2 CLR
19:40 4.4 °F 0.2 °F 1024.3 in Calm     74 % 0.0 in 0.0 W/m2 CLR
19:46 4.4 °F 0.4 °F 1023.9 in Calm     75 % 0.0 in 0.0 W/m2 CLR
19:51 4.4 °F 0.6 °F 1023.9 in Calm     76 % 0.0 in 0.0 W/m2 CLR
19:56 3.9 °F 0.1 °F 1023.9 in Calm     76 % 0.0 in 0.0 W/m2 CLR
20:01 3.9 °F 0.1 °F 1023.9 in Calm     76 % 0.0 in 0.0 W/m2 CLR
20:06 3.3 °F -0.5 °F 1024.3 in Calm     76 % 0.0 in 0.0 W/m2 CLR
20:11 3.3 °F -0.7 °F 1023.9 in Calm     75 % 0.0 in 0.0 W/m2 CLR
20:16 3.3 °F -0.7 °F 1023.9 in Calm     75 % 0.0 in 0.0 W/m2 CLR
20:21 3.3 °F -0.7 °F 1023.9 in Calm     75 % 0.0 in 0.0 W/m2 CLR
20:26 3.3 °F -0.3 °F 1023.9 in Calm     77 % 0.0 in 0.0 W/m2 CLR
20:31 3.3 °F -0.5 °F 1023.9 in Calm     76 % 0.0 in 0.0 W/m2 CLR
20:36 3.3 °F -0.5 °F 1023.9 in Calm     76 % 0.0 in 0.0 W/m2 CLR
20:41 3.3 °F -0.5 °F 1023.9 in Calm     76 % 0.0 in 0.0 W/m2 CLR
20:46 2.8 °F -1.2 °F 1024.3 in Calm     75 % 0.0 in 0.0 W/m2 CLR
20:51 2.8 °F -1.2 °F 1023.9 in Calm     75 % 0.0 in 0.0 W/m2 CLR
20:56 2.2 °F -1.6 °F 1023.9 in Calm     76 % 0.0 in 0.0 W/m2 CLR
21:01 2.2 °F -1.6 °F 1023.9 in Calm     76 % 0.0 in 0.0 W/m2 CLR
21:06 2.2 °F -1.6 °F 1023.9 in Calm     76 % 0.0 in 0.0 W/m2 CLR
21:11 2.2 °F -1.6 °F 1023.9 in Calm     76 % 0.0 in 0.0 W/m2 CLR
21:16 2.8 °F -1.2 °F 1023.9 in Calm     75 % 0.0 in 0.0 W/m2 CLR
21:21 2.8 °F -1.2 °F 1023.9 in Calm     75 % 0.0 in 0.0 W/m2 CLR
21:26 2.8 °F -1.4 °F 1024.3 in Calm     74 % 0.0 in 0.0 W/m2 CLR
21:31 2.8 °F -1.4 °F 1024.3 in Calm     74 % 0.0 in 0.0 W/m2 CLR
21:36 2.8 °F -1.4 °F 1023.9 in Calm     74 % 0.0 in 0.0 W/m2 CLR
21:41 2.8 °F -1.4 °F 1023.9 in Calm     74 % 0.0 in 0.0 W/m2 CLR
21:47 2.8 °F -1.2 °F 1023.9 in Calm     75 % 0.0 in 0.0 W/m2 CLR
21:52 2.8 °F -1.1 °F 1023.9 in Calm     76 % 0.0 in 0.0 W/m2 CLR
21:57 2.8 °F -1.1 °F 1023.9 in Calm     76 % 0.0 in 0.0 W/m2 CLR
22:02 2.2 °F -1.6 °F 1023.9 in Calm     76 % 0.0 in 0.0 W/m2 CLR
22:07 2.2 °F -1.4 °F 1023.9 in Calm     77 % 0.0 in 0.0 W/m2 CLR
22:12 2.2 °F -1.4 °F 1023.9 in Calm     77 % 0.0 in 0.0 W/m2 CLR
22:17 2.2 °F -1.4 °F 1023.9 in Calm     77 % 0.0 in 0.0 W/m2 CLR
22:22 2.2 °F -1.4 °F 1023.9 in Calm     77 % 0.0 in 0.0 W/m2 CLR
22:27 2.2 °F -1.6 °F 1023.6 in Calm     76 % 0.0 in 0.0 W/m2 CLR
22:32 2.8 °F -1.2 °F 1023.9 in Calm     75 % 0.0 in 0.0 W/m2 CLR
22:37 2.2 °F -1.6 °F 1023.6 in Calm     76 % 0.0 in 0.0 W/m2 CLR
22:42 2.2 °F -1.4 °F 1023.6 in Calm     77 % 0.0 in 0.0 W/m2 CLR
22:47 1.7 °F -1.8 °F 1023.6 in Calm     78 % 0.0 in 0.0 W/m2 CLR
22:52 1.7 °F -1.6 °F 1023.6 in Calm     79 % 0.0 in 0.0 W/m2 CLR
22:57 1.7 °F -1.6 °F 1023.6 in Calm     79 % 0.0 in 0.0 W/m2 CLR
23:02 1.7 °F -1.6 °F 1023.9 in Calm     79 % 0.0 in 0.0 W/m2 CLR
23:07 2.2 °F -0.9 °F 1023.6 in Calm     80 % 0.0 in 0.0 W/m2 CLR
23:12 2.2 °F -0.9 °F 1023.9 in Calm     80 % 0.0 in 0.0 W/m2 CLR
23:17 1.7 °F -1.4 °F 1023.9 in Calm     80 % 0.0 in 0.0 W/m2 CLR
23:22 1.7 °F -1.4 °F 1023.9 in Calm     80 % 0.0 in 0.0 W/m2 CLR
23:27 1.7 °F -1.2 °F 1023.9 in Calm     81 % 0.0 in 0.0 W/m2 CLR
23:32 1.7 °F -1.2 °F 1023.9 in Calm     81 % 0.0 in 0.0 W/m2 CLR
23:37 1.7 °F -1.2 °F 1023.9 in Calm     81 % 0.0 in 0.0 W/m2 CLR
23:42 1.7 °F -1.2 °F 1024.3 in Calm     81 % 0.0 in 0.0 W/m2 CLR
23:47 1.7 °F -1.2 °F 1024.3 in Calm     81 % 0.0 in 0.0 W/m2 CLR
23:52 1.7 °F -1.1 °F 1024.3 in Calm     82 % 0.0 in 0.0 W/m2 CLR
23:57 1.7 °F -1.1 °F 1024.3 in Calm     82 % 0.0 in 0.0 W/m2 CLR
Lo Temps de Massalio
Compliments of Weather Underground - 1.25 mb